Zenda, WI (53195)

03:10 PM CDT del 25 Agosto 2016 (GMT -0500)
Cornfield | | Change Station

Alt. 965 ft 42.46 °N, 88.48 °W | Updated 5 minutes ago

Clear
Sereno
80.5 °F
Sembra 82 °F
N
0.0
Vento Variabile Vento da NO
Gusts 0.0 mph

Oggi
Massima -- | Minima -- °F
--% Possibilità di precip.
Ieri
Massima -- | Minima -- °F
Precip. -- in
Pressione 30.04 in
Visibilità 10.0 miglia
Nuvole Sereno
Indice di calore 82 °F
Punto di rugiada 64 °F
Umidità 58%
Piovosità 0.74 in
Spessore del manto nevoso Non disponibile.
6:12 AM 7:38 PM
Ultimo quarto, 42% visible
METAR KBUU 251955Z AUTO 00000KT 10SM CLR 26/15 A3004 RMK AO2 T02580149
Pressione 30.04 in
Visibilità 10.0 miglia
Nuvole Sereno
Indice di calore 82 °F
Punto di rugiada 64 °F
Umidità 58%
Piovosità 0.74 in
Spessore del manto nevoso Non disponibile.
6:12 AM 7:38 PM
Ultimo quarto, 42% visible
METAR KBUU 251955Z AUTO 00000KT 10SM CLR 26/15 A3004 RMK AO2 T02580149
A tropical disturbance pushing toward the Bahamas, is expected to develop into a tropical depression or storm, and will likely target Florida and the Gulf Coast this weekend into next week.

Right now, the disturbance remains a broad area of low pressure pushing through the Dominican Republic and Haiti, headed toward the southeast Bahamas. Rainfall totals over 3 inches (with locally higher amounts) are expected in Hispañiola, particularly over elevated terrain.

10-Day Weather Forecast

Almanac

Astronomia

Aug. 25, 2016 Alba Tramonto
Ora attuale
Crepuscolo civile
Crepuscolo nautico
Crepuscolo astronomico
Luna
Estensione della luce visibile
Lunghezza del giorno
Tomorrow will be .
, % of the Moon is Illuminated

Gli estremi di oggi

State Highs State Lows

Community

WunderPhotos

Upload Photos

1,934,921 foto caricate!

WunderBlog® & News

Nearby

Qualità dell'aria

  Qualità dell'aria Indice AQ Inquinante
Not available.

Profondità neve

Stazione Profondità Altitudine

Attività sismica

Città  Distanza Mag. Data & Ora
Minimo Magnitudo Mostrato è 2.5.

Temperature delle acque costiere

Località Temperatura

Stations

Stazioni meteo nelle vicinanze

Ubicazione della stazione Temp. Raffreddamento del vento Punto di rugiada Umidità Vento Precip. Alt. Aggiornato Tipo
                   

Watches & Warnings

There are currently no watches in effect.